createdAt,value
2023-02-02T00:02:01.956Z,102239.97
2023-02-02T00:04:34.189Z,102230.72
2023-02-02T00:07:02.020Z,102230.91
2023-02-02T00:09:30.760Z,102235.78
2023-02-02T00:11:58.616Z,102241.28
2023-02-02T00:14:25.582Z,102237.22
2023-02-02T00:16:53.917Z,102246.78
2023-02-02T00:19:26.436Z,102249.84
2023-02-02T00:21:54.195Z,102234.78
2023-02-02T00:24:21.163Z,102245.34
2023-02-02T00:26:51.431Z,102246.94
2023-02-02T00:29:30.168Z,102249.06
2023-02-02T00:31:57.385Z,102243.53
2023-02-02T00:34:24.368Z,102236.41
2023-02-02T00:36:51.575Z,102247.94
2023-02-02T00:39:27.949Z,102250.34
2023-02-02T00:41:54.943Z,102248.09
2023-02-02T00:44:40.549Z,102247.44
2023-02-02T00:47:07.134Z,102243.84
2023-02-02T00:49:33.745Z,102249.53
2023-02-02T00:52:00.598Z,102250.66
2023-02-02T00:54:27.809Z,102258.63
2023-02-02T00:56:54.457Z,102253.41
2023-02-02T00:59:21.118Z,102258.94
2023-02-02T01:01:47.820Z,102265.72
2023-02-02T01:04:14.563Z,102272.22
2023-02-02T01:06:42.280Z,102257.31
2023-02-02T01:09:09.099Z,102262.97
2023-02-02T01:11:35.819Z,102268.81
2023-02-02T01:14:02.554Z,102258.47
2023-02-02T01:16:29.535Z,102242.41
2023-02-02T01:18:56.304Z,102257.31
2023-02-02T01:21:23.129Z,102264.44
2023-02-02T01:23:49.966Z,102269.13
2023-02-02T01:26:17.432Z,102263.78
2023-02-02T01:28:44.671Z,102261.50
2023-02-02T01:31:15.590Z,102259.25
2023-02-02T01:33:43.953Z,102274.16
2023-02-02T01:36:14.377Z,102270.25
2023-02-02T01:38:42.444Z,102262.81
2023-02-02T01:41:13.903Z,102264.44
2023-02-02T01:43:43.238Z,102261.69
2023-02-02T01:46:23.954Z,102261.69
2023-02-02T01:49:13.688Z,102268.50
2023-02-02T01:51:47.281Z,102262.47
2023-02-02T01:54:21.640Z,102265.25
2023-02-02T01:56:55.872Z,102273.34
2023-02-02T01:59:22.835Z,102276.09
2023-02-02T02:01:53.505Z,102265.09
2023-02-02T02:08:19.242Z,102264.59
2023-02-02T02:10:46.536Z,102264.41
2023-02-02T02:13:17.332Z,102269.44
2023-02-02T02:16:20.258Z,102260.88
2023-02-02T02:19:17.120Z,102275.44
2023-02-02T02:22:12.930Z,102269.78
2023-02-02T02:25:26.200Z,102267.84
2023-02-02T02:28:00.888Z,102278.34
2023-02-02T02:30:33.984Z,102279.66
2023-02-02T02:33:27.928Z,102281.09
2023-02-02T02:36:07.078Z,102292.13
2023-02-02T02:38:51.569Z,102277.06
2023-02-02T02:41:25.396Z,102291.31
2023-02-02T02:44:07.564Z,102278.53
2023-02-02T02:46:35.829Z,102293.75
2023-02-02T02:49:23.595Z,102289.06
2023-02-02T02:51:54.905Z,102295.88
2023-02-02T02:54:35.065Z,102276.44
2023-02-02T02:57:17.191Z,102283.22
2023-02-02T03:00:07.375Z,102282.09
2023-02-02T03:03:08.396Z,102281.59
2023-02-02T03:06:00.766Z,102272.53
2023-02-02T03:08:44.291Z,102288.25
2023-02-02T03:11:12.959Z,102288.25
2023-02-02T03:13:41.257Z,102291.16
2023-02-02T03:16:11.343Z,102285.50
2023-02-02T03:18:57.181Z,102296.97
2023-02-02T03:21:23.983Z,102288.72
2023-02-02T03:23:51.150Z,102292.94
2023-02-02T03:26:18.136Z,102295.22
2023-02-02T03:28:52.603Z,102283.88
2023-02-02T03:31:22.323Z,102287.59
2023-02-02T03:33:49.387Z,102287.09
2023-02-02T03:36:16.219Z,102286.13
2023-02-02T03:38:43.176Z,102276.91
2023-02-02T03:41:10.258Z,102262.81
2023-02-02T03:43:37.058Z,102273.34
2023-02-02T03:46:05.954Z,102277.25
2023-02-02T03:48:36.989Z,102285.97
2023-02-02T03:51:19.375Z,102289.34
2023-02-02T03:53:50.863Z,102297.13
2023-02-02T03:56:19.787Z,102308.50
2023-02-02T03:58:56.889Z,102312.06
2023-02-02T04:01:33.002Z,102309.63
2023-02-02T04:03:59.813Z,102308.78
2023-02-02T04:06:27.383Z,102316.75
2023-02-02T04:08:58.203Z,102316.75
2023-02-02T04:11:28.788Z,102322.91
2023-02-02T04:13:55.374Z,102322.75
2023-02-02T04:16:23.152Z,102323.41
2023-02-02T04:18:50.149Z,102333.56
2023-02-02T04:21:16.786Z,102336.31
2023-02-02T04:23:43.651Z,102336.81
2023-02-02T04:26:10.591Z,102336.53
2023-02-02T04:28:37.533Z,102325.16
2023-02-02T04:31:06.471Z,102336.03
2023-02-02T04:33:35.013Z,102328.41
2023-02-02T04:36:02.006Z,102337.16
2023-02-02T04:38:28.699Z,102339.41
2023-02-02T04:40:58.849Z,102338.44
2023-02-02T04:43:30.128Z,102338.91
2023-02-02T04:45:57.661Z,102322.72
2023-02-02T04:48:30.871Z,102316.88
2023-02-02T04:51:01.917Z,102310.56
2023-02-02T04:53:30.483Z,102317.38
2023-02-02T04:55:57.666Z,102314.78
2023-02-02T04:58:27.698Z,102326.44
2023-02-02T05:00:54.532Z,102330.97
2023-02-02T05:03:23.220Z,102339.72
2023-02-02T05:05:59.173Z,102337.13
2023-02-02T05:08:25.959Z,102344.91
2023-02-02T05:10:54.949Z,102338.91
2023-02-02T05:13:32.179Z,102338.59
2023-02-02T05:16:01.139Z,102343.78
2023-02-02T05:18:31.716Z,102341.03
2023-02-02T05:21:09.144Z,102337.44
2023-02-02T05:23:36.054Z,102337.63
2023-02-02T05:26:04.135Z,102334.06
2023-02-02T05:28:30.899Z,102331.63
2023-02-02T05:30:57.693Z,102337.13
2023-02-02T05:33:24.650Z,102337.94
2023-02-02T05:35:54.321Z,102331.47
2023-02-02T05:38:28.576Z,102341.34
2023-02-02T05:40:55.787Z,102334.56
2023-02-02T05:43:26.256Z,102326.59
2023-02-02T05:45:57.058Z,102337.63
2023-02-02T05:48:23.750Z,102335.03
2023-02-02T05:50:59.024Z,102339.72
2023-02-02T05:53:30.394Z,102351.19
2023-02-02T05:56:00.496Z,102350.56
2023-02-02T05:58:28.336Z,102352.50
2023-02-02T06:00:59.050Z,102349.13
2023-02-02T06:03:26.075Z,102345.53
2023-02-02T06:05:53.596Z,102342.78
2023-02-02T06:08:20.666Z,102344.06
2023-02-02T06:10:52.356Z,102337.28
2023-02-02T06:13:19.186Z,102333.72
2023-02-02T06:15:50.304Z,102337.56
2023-02-02T06:18:27.555Z,102348.13
2023-02-02T06:21:01.832Z,102351.50
2023-02-02T06:23:28.925Z,102368.34
2023-02-02T06:25:55.985Z,102364.00
2023-02-02T06:28:23.282Z,102362.50
2023-02-02T06:31:05.862Z,102370.59
2023-02-02T06:33:33.104Z,102368.19
2023-02-02T06:36:04.794Z,102378.72
2023-02-02T06:38:32.759Z,102375.47
2023-02-02T06:41:00.572Z,102375.31
2023-02-02T06:43:31.102Z,102376.59
2023-02-02T06:46:02.923Z,102391.69
2023-02-02T06:48:30.637Z,102382.28
2023-02-02T06:51:29.492Z,102393.28
2023-02-02T06:54:08.402Z,102399.44
2023-02-02T06:56:35.350Z,102391.19
2023-02-02T06:59:02.377Z,102398.81
2023-02-02T07:01:29.065Z,102405.91
2023-02-02T07:04:04.498Z,102402.69
2023-02-02T07:06:31.354Z,102399.75
2023-02-02T07:09:02.927Z,102389.56
2023-02-02T07:11:37.281Z,102385.34
2023-02-02T07:14:06.518Z,102384.69
2023-02-02T07:16:33.776Z,102394.06
2023-02-02T07:19:05.609Z,102401.22
2023-02-02T07:21:36.441Z,102396.84
2023-02-02T07:24:05.529Z,102400.56
2023-02-02T07:26:35.248Z,102394.13
2023-02-02T07:29:08.547Z,102395.41
2023-02-02T07:31:36.747Z,102388.59
2023-02-02T07:34:06.719Z,102392.97
2023-02-02T07:36:33.707Z,102394.09
2023-02-02T07:39:04.114Z,102393.63
2023-02-02T07:41:35.470Z,102396.38
2023-02-02T07:44:02.638Z,102390.88
2023-02-02T07:46:29.976Z,102402.41
2023-02-02T07:48:57.779Z,102399.81
2023-02-02T07:51:25.612Z,102396.38
2023-02-02T07:53:55.098Z,102402.69
2023-02-02T07:56:26.835Z,102401.75
2023-02-02T07:58:55.348Z,102415.53
2023-02-02T08:01:23.658Z,102407.59
2023-02-02T08:03:50.795Z,102408.25
2023-02-02T08:06:30.409Z,102416.66
2023-02-02T08:09:01.247Z,102412.13
2023-02-02T08:11:29.013Z,102426.25
2023-02-02T08:13:59.664Z,102419.44
2023-02-02T08:16:28.068Z,102428.34
2023-02-02T08:18:55.227Z,102435.63
2023-02-02T08:21:22.682Z,102426.72
2023-02-02T08:23:49.981Z,102433.69
2023-02-02T08:26:28.099Z,102438.06
2023-02-02T08:28:57.894Z,102434.34
2023-02-02T08:31:30.833Z,102416.19
2023-02-02T08:34:00.619Z,102431.75
2023-02-02T08:36:30.204Z,102436.91
2023-02-02T08:39:03.035Z,102437.94
2023-02-02T08:41:34.022Z,102447.00
2023-02-02T08:44:04.459Z,102448.59
2023-02-02T08:46:31.296Z,102452.19
2023-02-02T08:48:59.220Z,102451.88
2023-02-02T08:51:26.144Z,102453.47
2023-02-02T08:53:53.170Z,102458.66
2023-02-02T08:56:21.624Z,102465.13
2023-02-02T08:58:58.204Z,102470.63
2023-02-02T09:01:31.264Z,102474.88
2023-02-02T09:04:07.862Z,102478.75
2023-02-02T09:06:40.240Z,102484.28
2023-02-02T09:09:09.944Z,102492.38
2023-02-02T09:11:37.069Z,102497.13
2023-02-02T09:14:06.930Z,102501.28
2023-02-02T09:16:35.344Z,102501.78
2023-02-02T09:19:02.953Z,102500.16
2023-02-02T09:21:29.866Z,102507.28
2023-02-02T09:23:57.505Z,102509.88
2023-02-02T09:26:32.566Z,102518.31
2023-02-02T09:29:02.695Z,102514.41
2023-02-02T09:31:33.135Z,102524.16
2023-02-02T09:34:14.012Z,102522.66
2023-02-02T09:36:41.812Z,102527.09
2023-02-02T09:39:11.025Z,102514.63
2023-02-02T09:41:37.568Z,102528.72
2023-02-02T09:44:50.957Z,102535.13
2023-02-02T09:47:28.737Z,102520.53
2023-02-02T09:49:58.713Z,102534.81
2023-02-02T09:52:30.383Z,102536.13
2023-02-02T09:55:06.541Z,102526.22
2023-02-02T09:57:44.437Z,102532.88
2023-02-02T10:00:31.457Z,102522.19
2023-02-02T10:03:04.666Z,102525.25
2023-02-02T10:05:47.190Z,102518.78
2023-02-02T10:08:33.892Z,102523.97
2023-02-02T10:11:12.818Z,102522.03
2023-02-02T10:13:43.827Z,102507.75
2023-02-02T10:16:17.542Z,102515.38
2023-02-02T10:19:06.514Z,102517.97
2023-02-02T10:22:00.317Z,102508.91
2023-02-02T10:24:29.884Z,102503.41
2023-02-02T10:27:04.509Z,102516.56
2023-02-02T10:29:49.218Z,102504.66
2023-02-02T10:32:23.566Z,102504.66
2023-02-02T10:35:17.717Z,102500.59
2023-02-02T10:38:10.542Z,102506.81
2023-02-02T10:41:17.247Z,102509.72
2023-02-02T10:44:15.577Z,102507.63
2023-02-02T10:46:56.092Z,102509.22
2023-02-02T10:49:38.344Z,102502.41
2023-02-02T10:52:17.296Z,102510.84
2023-02-02T10:54:57.727Z,102507.28
2023-02-02T10:57:53.377Z,102509.38
2023-02-02T11:00:31.241Z,102523.69
2023-02-02T11:02:59.145Z,102516.84
2023-02-02T11:05:50.334Z,102530.97
2023-02-02T11:08:40.682Z,102538.44
2023-02-02T11:11:55.308Z,102524.00
2023-02-02T11:14:55.453Z,102525.78
2023-02-02T11:17:29.973Z,102524.78
2023-02-02T11:19:59.779Z,102530.03
2023-02-02T11:22:35.452Z,102521.25
2023-02-02T11:25:27.829Z,102527.41
2023-02-02T11:27:56.321Z,102522.22
2023-02-02T11:30:36.010Z,102521.88
2023-02-02T11:33:29.832Z,102521.88
2023-02-02T11:35:59.686Z,102521.06
2023-02-02T11:38:28.611Z,102523.38
2023-02-02T11:40:58.578Z,102521.06
2023-02-02T11:43:31.161Z,102523.00
2023-02-02T11:46:06.470Z,102530.66
2023-02-02T11:48:38.280Z,102516.22
2023-02-02T11:51:08.257Z,102519.41
2023-02-02T11:53:46.920Z,102516.56
2023-02-02T11:56:27.946Z,102519.47
2023-02-02T11:59:03.956Z,102522.03
2023-02-02T12:01:40.186Z,102526.09
2023-02-02T12:04:16.967Z,102532.59
2023-02-02T12:06:44.209Z,102522.88
2023-02-02T12:09:23.255Z,102520.13
2023-02-02T12:12:07.795Z,102524.97
2023-02-02T12:14:43.229Z,102527.91
2023-02-02T12:17:39.046Z,102533.09
2023-02-02T12:20:33.971Z,102521.75
2023-02-02T12:23:42.915Z,102531.97
2023-02-02T12:26:22.489Z,102532.75
2023-02-02T12:29:05.025Z,102533.88
2023-02-02T12:31:52.210Z,102538.56
2023-02-02T12:34:50.132Z,102531.63
2023-02-02T12:37:41.595Z,102555.78
2023-02-02T12:40:17.474Z,102555.28
2023-02-02T12:43:00.527Z,102544.66
2023-02-02T12:45:35.171Z,102566.44
2023-02-02T12:48:15.077Z,102569.88
2023-02-02T12:50:53.928Z,102565.31
2023-02-02T12:53:36.522Z,102565.16
2023-02-02T12:56:26.634Z,102562.25
2023-02-02T12:59:08.422Z,102558.84
2023-02-02T13:01:44.777Z,102554.94
2023-02-02T13:07:40.088Z,102533.56
2023-02-02T13:10:17.373Z,102536.97
2023-02-02T13:13:11.894Z,102537.28
2023-02-02T13:15:49.159Z,102529.34
2023-02-02T13:18:31.101Z,102518.31
2023-02-02T13:21:11.553Z,102525.94
2023-02-02T13:23:45.766Z,102528.69
2023-02-02T13:26:22.219Z,102517.00
2023-02-02T13:29:14.369Z,102521.41
2023-02-02T13:31:51.820Z,102529.69
2023-02-02T13:34:23.046Z,102515.72
2023-02-02T13:37:11.195Z,102517.66
2023-02-02T13:39:47.934Z,102516.69
2023-02-02T13:42:36.521Z,102517.47
2023-02-02T13:45:27.658Z,102521.25
2023-02-02T13:48:06.360Z,102526.75
2023-02-02T13:50:44.266Z,102524.94
2023-02-02T13:53:34.606Z,102523.31
2023-02-02T13:56:30.808Z,102531.59
2023-02-02T13:59:04.826Z,102522.34
2023-02-02T14:01:32.398Z,102522.66
2023-02-02T14:04:00.784Z,102534.53
2023-02-02T14:06:31.594Z,102533.22
2023-02-02T14:09:02.049Z,102535.47
2023-02-02T14:11:32.757Z,102533.06
2023-02-02T14:14:33.447Z,102534.53
2023-02-02T14:17:04.336Z,102534.03
2023-02-02T14:19:42.095Z,102546.19
2023-02-02T14:22:08.940Z,102546.22
2023-02-02T14:24:36.988Z,102546.22
2023-02-02T14:27:10.072Z,102552.41
2023-02-02T14:29:46.983Z,102545.75
2023-02-02T14:32:29.310Z,102547.50
2023-02-02T14:35:00.139Z,102554.00
2023-02-02T14:37:32.105Z,102554.47
2023-02-02T14:40:08.721Z,102559.19
2023-02-02T14:43:15.285Z,102556.09
2023-02-02T14:45:44.227Z,102561.31
2023-02-02T14:48:17.132Z,102565.00
2023-02-02T14:51:02.184Z,102567.13
2023-02-02T14:53:39.776Z,102569.09
2023-02-02T14:56:17.623Z,102566.31
2023-02-02T14:58:46.981Z,102566.78
2023-02-02T15:01:25.986Z,102566.16
2023-02-02T15:03:55.402Z,102570.88
2023-02-02T15:06:30.362Z,102572.63
2023-02-02T15:09:29.364Z,102575.75
2023-02-02T15:12:02.183Z,102569.09
2023-02-02T15:14:42.672Z,102568.41
2023-02-02T15:17:34.860Z,102583.19
2023-02-02T15:20:18.077Z,102574.41
2023-02-02T15:22:47.577Z,102578.47
2023-02-02T15:25:16.931Z,102590.94
2023-02-02T15:27:56.987Z,102586.59
2023-02-02T15:30:27.554Z,102594.03
2023-02-02T15:32:56.027Z,102577.81
2023-02-02T15:35:30.874Z,102576.34
2023-02-02T15:38:06.585Z,102582.69
2023-02-02T15:40:36.903Z,102590.78
2023-02-02T15:43:09.321Z,102597.44
2023-02-02T15:45:51.068Z,102600.03
2023-02-02T15:48:30.031Z,102606.03
2023-02-02T15:51:00.093Z,102609.78
2023-02-02T15:53:49.191Z,102607.16
2023-02-02T15:56:23.123Z,102613.81
2023-02-02T15:58:52.215Z,102620.63
2023-02-02T16:01:21.513Z,102624.50
2023-02-02T16:03:51.169Z,102622.59
2023-02-02T16:06:19.206Z,102624.38
2023-02-02T16:08:46.618Z,102622.88
2023-02-02T16:11:19.312Z,102615.25
2023-02-02T16:14:01.450Z,102619.16
2023-02-02T16:16:37.009Z,102619.28
2023-02-02T16:19:08.900Z,102617.97
2023-02-02T16:21:41.801Z,102624.81
2023-02-02T16:24:15.612Z,102634.56
2023-02-02T16:26:42.629Z,102618.97
2023-02-02T16:29:18.449Z,102630.03
2023-02-02T16:31:47.285Z,102635.69
2023-02-02T16:34:36.792Z,102630.06
2023-02-02T16:37:16.609Z,102631.84
2023-02-02T16:39:43.741Z,102622.28
2023-02-02T16:42:28.953Z,102631.69
2023-02-02T16:44:59.911Z,102637.56
2023-02-02T16:47:27.342Z,102634.63
2023-02-02T16:50:19.728Z,102637.56
2023-02-02T16:52:54.027Z,102645.06
2023-02-02T16:55:22.040Z,102640.81
2023-02-02T16:57:50.458Z,102643.56
2023-02-02T17:00:23.244Z,102640.00
2023-02-02T17:02:55.918Z,102653.66
2023-02-02T17:05:29.969Z,102653.34
2023-02-02T17:08:04.539Z,102651.22
2023-02-02T17:11:18.937Z,102658.06
2023-02-02T17:13:45.940Z,102642.78
2023-02-02T17:16:16.697Z,102650.13
2023-02-02T17:18:43.947Z,102645.41
2023-02-02T17:21:19.926Z,102658.88
2023-02-02T17:23:47.221Z,102643.78
2023-02-02T17:26:14.289Z,102647.69
2023-02-02T17:28:42.065Z,102652.22
2023-02-02T17:31:11.752Z,102645.09
2023-02-02T17:33:39.514Z,102643.16
2023-02-02T17:36:06.616Z,102642.50
2023-02-02T17:38:33.727Z,102640.22
2023-02-02T17:41:02.287Z,102638.59
2023-02-02T17:43:30.322Z,102644.13
2023-02-02T17:45:57.672Z,102645.56
2023-02-02T17:48:24.401Z,102657.41
2023-02-02T17:50:51.411Z,102664.38
2023-02-02T17:53:20.494Z,102666.84
2023-02-02T17:55:49.870Z,102654.19
2023-02-02T17:58:18.130Z,102666.19
2023-02-02T18:00:53.382Z,102668.16
2023-02-02T18:03:34.277Z,102667.47
2023-02-02T18:06:02.328Z,102666.97
2023-02-02T18:08:29.955Z,102661.97
2023-02-02T18:10:58.129Z,102671.38
2023-02-02T18:13:27.149Z,102663.56
2023-02-02T18:15:56.436Z,102654.31
2023-02-02T18:18:23.539Z,102665.84
2023-02-02T18:20:50.729Z,102644.44
2023-02-02T18:23:19.085Z,102646.69
2023-02-02T18:25:46.118Z,102651.91
2023-02-02T18:28:17.112Z,102653.81
2023-02-02T18:30:45.417Z,102649.63
2023-02-02T18:33:13.597Z,102645.53
2023-02-02T18:35:44.946Z,102652.72
2023-02-02T18:38:11.712Z,102643.44
2023-02-02T18:40:38.614Z,102641.44
2023-02-02T18:43:05.483Z,102646.97
2023-02-02T18:45:32.268Z,102653.47
2023-02-02T18:47:59.179Z,102651.16
2023-02-02T18:50:26.062Z,102651.97
2023-02-02T18:52:52.795Z,102655.22
2023-02-02T18:55:19.739Z,102649.88
2023-02-02T18:57:46.418Z,102658.13
2023-02-02T19:00:13.571Z,102654.56
2023-02-02T19:02:40.237Z,102652.97
2023-02-02T19:05:26.634Z,102647.44
2023-02-02T19:07:56.681Z,102647.91
2023-02-02T19:10:26.159Z,102646.59
2023-02-02T19:12:58.719Z,102649.69
2023-02-02T19:15:27.054Z,102654.56
2023-02-02T19:17:55.428Z,102642.34
2023-02-02T19:20:30.791Z,102665.22
2023-02-02T19:23:10.143Z,102655.97
2023-02-02T19:25:36.908Z,102660.03
2023-02-02T19:28:17.187Z,102655.97
2023-02-02T19:30:45.548Z,102655.00
2023-02-02T19:33:14.441Z,102650.78
2023-02-02T19:35:45.186Z,102647.56
2023-02-02T19:38:16.588Z,102642.34
2023-02-02T19:40:43.992Z,102647.06
2023-02-02T19:43:10.627Z,102650.63
2023-02-02T19:45:39.760Z,102651.44
2023-02-02T19:48:19.622Z,102665.22
2023-02-02T19:50:47.078Z,102664.59
2023-02-02T19:53:40.981Z,102668.63
2023-02-02T19:56:39.964Z,102664.41
2023-02-02T19:59:16.283Z,102656.16
2023-02-02T20:01:46.126Z,102660.38
2023-02-02T20:04:15.482Z,102661.19
2023-02-02T20:06:56.670Z,102655.38
2023-02-02T20:09:26.148Z,102649.34
2023-02-02T20:11:56.784Z,102645.47
2023-02-02T20:14:32.218Z,102662.84
2023-02-02T20:17:14.300Z,102659.88
2023-02-02T20:19:45.584Z,102664.13
2023-02-02T20:22:29.794Z,102655.69
2023-02-02T20:24:58.267Z,102666.53
2023-02-02T20:27:29.383Z,102663.66
2023-02-02T20:30:07.348Z,102669.34
2023-02-02T20:32:40.239Z,102668.81
2023-02-02T20:35:24.974Z,102667.50
2023-02-02T20:37:51.858Z,102675.78
2023-02-02T20:40:27.937Z,102674.34
2023-02-02T20:42:55.008Z,102674.69
2023-02-02T20:45:22.119Z,102672.06
2023-02-02T20:47:49.725Z,102686.50
2023-02-02T20:50:19.281Z,102692.50
2023-02-02T20:52:46.225Z,102682.28
2023-02-02T20:55:13.264Z,102685.03
2023-02-02T20:57:40.348Z,102702.56
2023-02-02T21:00:08.767Z,102699.97
2023-02-02T21:02:35.658Z,102700.25
2023-02-02T21:05:02.480Z,102706.59
2023-02-02T21:07:29.509Z,102688.72
2023-02-02T21:09:56.539Z,102688.25
2023-02-02T21:12:25.811Z,102689.69
2023-02-02T21:14:54.019Z,102697.50
2023-02-02T21:17:20.976Z,102697.84
2023-02-02T21:19:47.693Z,102696.66
2023-02-02T21:22:14.640Z,102697.50
2023-02-02T21:24:42.832Z,102706.09
2023-02-02T21:27:10.081Z,102705.59
2023-02-02T21:29:37.116Z,102710.94
2023-02-02T21:32:04.262Z,102698.13
2023-02-02T21:34:31.449Z,102709.97
2023-02-02T21:36:59.172Z,102708.31
2023-02-02T21:39:31.995Z,102706.88
2023-02-02T21:42:07.568Z,102713.00
2023-02-02T21:44:39.741Z,102699.56
2023-02-02T21:47:28.613Z,102709.16
2023-02-02T21:49:59.393Z,102705.88
2023-02-02T21:52:32.379Z,102697.28
2023-02-02T21:55:00.183Z,102699.06
2023-02-02T21:57:36.664Z,102703.81
2023-02-02T22:00:23.188Z,102694.41
2023-02-02T22:02:51.305Z,102696.31
2023-02-02T22:05:24.330Z,102703.13
2023-02-02T22:07:53.555Z,102709.97
2023-02-02T22:11:56.024Z,102716.56
2023-02-02T22:14:29.882Z,102703.63
2023-02-02T22:16:59.042Z,102711.41
2023-02-02T22:19:35.219Z,102712.72
2023-02-02T22:22:13.303Z,102698.44
2023-02-02T22:24:40.454Z,102700.25
2023-02-02T22:27:23.465Z,102713.69
2023-02-02T22:29:58.404Z,102696.66
2023-02-02T22:32:25.142Z,102691.78
2023-02-02T22:34:52.071Z,102692.16
2023-02-02T22:37:18.819Z,102684.81
2023-02-02T22:39:45.733Z,102687.09
2023-02-02T22:42:12.419Z,102674.41
2023-02-02T22:44:39.196Z,102666.66
2023-02-02T22:47:05.903Z,102680.28
2023-02-02T22:49:32.603Z,102671.38
2023-02-02T22:51:59.583Z,102683.72
2023-02-02T22:54:26.793Z,102659.84
2023-02-02T22:56:53.593Z,102674.59
2023-02-02T22:59:20.204Z,102675.44
2023-02-02T23:01:47.017Z,102673.66
2023-02-02T23:04:14.169Z,102663.41
2023-02-02T23:06:40.940Z,102673.31
2023-02-02T23:09:11.270Z,102670.56
2023-02-02T23:11:38.293Z,102669.06
2023-02-02T23:14:05.274Z,102677.97
2023-02-02T23:16:32.331Z,102664.31
2023-02-02T23:19:02.733Z,102647.00
2023-02-02T23:21:29.725Z,102651.50
2023-02-02T23:23:56.952Z,102644.09
2023-02-02T23:26:24.689Z,102639.38
2023-02-02T23:28:51.578Z,102636.44
2023-02-02T23:31:21.342Z,102615.97
2023-02-02T23:33:48.018Z,102627.34
2023-02-02T23:36:14.765Z,102644.91
2023-02-02T23:38:41.482Z,102640.50
2023-02-02T23:41:08.142Z,102639.72
2023-02-02T23:43:34.917Z,102635.34
2023-02-02T23:46:01.712Z,102636.63
2023-02-02T23:48:28.913Z,102630.50
2023-02-02T23:50:55.962Z,102624.50
2023-02-02T23:53:22.827Z,102621.63
2023-02-02T23:55:49.796Z,102613.66
2023-02-02T23:58:16.532Z,102623.72
